Crawley, West Virginia
Current Conditions -  °F | °C
As of 5:35 AM on Monday 26 Jan 2015 (Local Time) from KLWB Reporting Station
Haze Haze  
Wind Chill: 29°   Ceiling: 5000
Heat Index: 35°   Visibility: 3mi
Dew Point: 33°   Wind: 7mph
Humidity: 95%   Direction: 20°NNE
Pressure: 29.62"   Gusts: NA
Location:  37.93°N, 80.65°W
Report Text: KLWB 261035Z AUTO 02006KT 3SM BR BKN050 OVC090 01/01 A2962 RMK AO2 T00140007
Loading
Personal Weather Stations






























Interactive Weather Map New forecast layout! Learn more

10-Day Weather Forecast

Advertisements
Track Severe Weather on mobile